Impacts METAR Board
IDs:

KATL - Atlanta/Hartsfield-J, GA, US

Updated at: 0700 UTC 16 Oct 2018
Potential Impact None Slight Moderate High
Time 15/19Z 15/20Z 15/21Z 15/22Z 15/23Z 16/00Z 16/01Z 16/02Z 16/03Z 16/04Z 16/05Z 16/06Z 16/07Z
Temp79 79 83 81 78 76 74 73 72 72 71 70 71
Dewpt68 68 66 66 67 67 67 67 66 67 67 67 68
Altim30.12 30.11 30.11 30.12 30.12 30.12 30.13 30.15 30.15 30.16 30.13 30.12 30.13
VIS10 10 10 10 10 10 10 10 10 10 9 9 9
CIG23 -- -- -- -- -- -- -- -- 250 250 200 200
CoverBKNSCTSCTFEWFEWFEWFEWSCTSCTBKNBKNBKNBKN
FltCatMVFRVFRVFRVFRVFRVFRVFRVFRVFRVFRVFRVFRVFR
WX--------------------------
WDir00250280280190020001401600
WSpd0 0 9 6 3 3 0 3 0 0 3 3 0
WGst-- -- -- -- -- -- -- -- -- -- -- -- --
Raw hourly METARs
KATL 151904Z 00000KT 10SM BKN023 BKN040 BKN070 26/20 A3012 RMK AO2 T02610200
KATL 151952Z 00000KT 10SM FEW030 FEW050 SCT070 26/20 A3011 RMK AO2 SLP188 T02610200
KATL 152052Z 25009KT 10SM FEW035 SCT080 28/19 A3011 RMK AO2 SLP188 T02830189 55010
KATL 152152Z 28006KT 10SM FEW035 FEW080 27/19 A3012 RMK AO2 SLP191 T02720189
KATL 152252Z 28003KT 10SM FEW030 FEW080 26/19 A3012 RMK AO2 SLP194 T02560194
KATL 152352Z 19003KT 10SM FEW150 24/19 A3012 RMK AO2 SLP192 T02440194 10289 20244 50003
KATL 160052Z 00000KT 10SM FEW080 23/19 A3013 RMK AO2 SLP197 T02330194
KATL 160152Z 02003KT 10SM FEW080 SCT250 23/19 A3015 RMK AO2 SLP203 T02280194
KATL 160252Z 00000KT 10SM FEW080 SCT250 22/19 A3015 RMK AO2 SLP203 T02220189 51010
KATL 160352Z 00000KT 10SM FEW090 BKN250 22/19 A3016 RMK AO2 SLP205 T02220194
KATL 160452Z 14003KT 9SM FEW090 SCT200 BKN250 22/19 A3013 RMK AO2 SLP195 T02170194 402890172
KATL 160552Z 16003KT 9SM FEW020 SCT090 BKN200 BKN250 21/19 A3012 RMK AO2 SLP192 T02110194 10244 20211 58009
KATL 160652Z 00000KT 9SM FEW020 SCT120 BKN200 22/20 A3013 RMK AO2 SLP193 T02170200



Page loaded:  07:39 UTC  |   12:39 AM Pacific  |   01:39 AM Mountain  |   02:39 AM Central  |   03:39 AM Eastern

 

ADVISORIES

FORECASTS

FORECASTS

OBSERVATIONS

USER TOOLS

ABOUT US